Main page
METAR-TAF:

METAR-TAF

Airports :

Cognac, France

Cognac – Châteaubernard Air Base

latitude: 45-40N, longitude: 000-19W, elevation: 30 m

Current weather observation

The report was made 37 minutes ago, at 01:30 UTC
Wind 3 kt from the East/Southeast, varying between East and South/Southwest
Temperature 22°C
Humidity 69%
Pressure 1013 hPa
Visibility 10 km or more
no clouds below 1500 m and no cumulonimbus

METAR: LFBG 290130Z AUTO 12003KT 090V210 CAVOK 22/16 Q1013

Time: 04:07 (02:07 UTC)


TAF: missing

Weather observations and forecasts of more than 4000 airports (METAR and TAF reports).

The available stations are represented by yellow and red dots on the map.

Hover mouse over dot to see the name of the station.

Then click to see weather observations and forecasts.

To change the map : click on the green buttons with a black cross to zoom in, on the green button with a dash to zoom out, or on the green arrows for adjacent maps.


METAR-TAF: